createdAt,value
2023-03-24T00:00:30.087Z,3.78
2023-03-24T00:03:01.841Z,4.68
2023-03-24T00:05:30.568Z,4.22
2023-03-24T00:08:02.167Z,3.92
2023-03-24T00:10:30.943Z,3.92
2023-03-24T00:12:58.779Z,4.15
2023-03-24T00:15:25.943Z,5.10
2023-03-24T00:17:56.342Z,6.68
2023-03-24T00:20:24.982Z,6.18
2023-03-24T00:22:57.333Z,7.15
2023-03-24T00:25:30.166Z,6.93
2023-03-24T00:27:58.125Z,6.90
2023-03-24T00:30:26.327Z,5.88
2023-03-24T00:32:53.902Z,5.32
2023-03-24T00:35:21.249Z,5.60
2023-03-24T00:37:52.167Z,5.20
2023-03-24T00:40:21.250Z,5.07
2023-03-24T00:42:49.535Z,4.32
2023-03-24T00:45:23.845Z,4.25
2023-03-24T00:47:54.476Z,4.47
2023-03-24T00:50:27.621Z,4.38
2023-03-24T00:52:55.357Z,4.95
2023-03-24T00:55:23.262Z,5.45
2023-03-24T00:57:50.946Z,4.82
2023-03-24T01:00:24.674Z,4.28
2023-03-24T01:02:54.130Z,4.10
2023-03-24T01:05:28.343Z,4.60
2023-03-24T01:08:04.038Z,4.57
2023-03-24T01:10:33.836Z,4.75
2023-03-24T01:13:01.969Z,4.47
2023-03-24T01:15:33.882Z,4.78
2023-03-24T01:18:03.892Z,4.75
2023-03-24T01:20:35.896Z,5.20
2023-03-24T01:23:05.438Z,6.10
2023-03-24T01:25:32.671Z,4.72
2023-03-24T01:28:02.831Z,6.40
2023-03-24T01:30:31.050Z,5.55
2023-03-24T01:32:58.101Z,5.65
2023-03-24T01:35:28.541Z,4.03
2023-03-24T01:37:56.598Z,5.18
2023-03-24T01:40:30.538Z,4.50
2023-03-24T01:42:57.931Z,4.15
2023-03-24T01:45:43.303Z,4.80
2023-03-24T01:48:13.275Z,3.88
2023-03-24T01:50:42.375Z,4.45
2023-03-24T01:53:09.532Z,4.38
2023-03-24T01:55:37.799Z,4.80
2023-03-24T01:58:05.461Z,4.28
2023-03-24T02:00:32.266Z,4.65
2023-03-24T02:03:03.656Z,4.22
2023-03-24T02:05:35.620Z,4.90
2023-03-24T02:08:28.470Z,4.50
2023-03-24T02:10:57.105Z,5.05
2023-03-24T02:13:23.928Z,5.85
2023-03-24T02:16:00.236Z,6.10
2023-03-24T02:19:04.944Z,6.03
2023-03-24T02:21:47.051Z,5.93
2023-03-24T02:24:44.174Z,5.97
2023-03-24T02:28:01.632Z,6.75
2023-03-24T02:30:43.987Z,5.63
2023-03-24T02:33:21.149Z,6.28
2023-03-24T02:36:19.240Z,6.65
2023-03-24T02:39:38.282Z,6.88
2023-03-24T02:42:26.933Z,5.65
2023-03-24T02:45:09.157Z,6.45
2023-03-24T02:48:20.643Z,7.32
2023-03-24T02:51:06.975Z,6.10
2023-03-24T02:54:22.072Z,5.28
2023-03-24T02:57:17.934Z,4.68
2023-03-24T02:59:54.791Z,4.55
2023-03-24T03:02:34.967Z,4.40
2023-03-24T03:05:07.435Z,4.68
2023-03-24T03:07:39.202Z,5.03
2023-03-24T03:10:18.722Z,4.88
2023-03-24T03:12:52.349Z,4.50
2023-03-24T03:15:32.736Z,5.15
2023-03-24T03:18:10.598Z,5.20
2023-03-24T03:20:50.990Z,4.40
2023-03-24T03:23:26.864Z,4.70
2023-03-24T03:26:02.528Z,4.50
2023-03-24T03:28:30.513Z,5.32
2023-03-24T03:31:01.841Z,5.03
2023-03-24T03:33:39.616Z,6.68
2023-03-24T03:36:23.689Z,8.18
2023-03-24T03:39:20.576Z,8.75
2023-03-24T03:41:55.214Z,8.02
2023-03-24T03:44:29.542Z,8.35
2023-03-24T03:46:56.443Z,8.30
2023-03-24T03:49:26.042Z,8.68
2023-03-24T03:51:54.294Z,8.07
2023-03-24T03:54:23.019Z,8.10
2023-03-24T03:56:50.867Z,9.02
2023-03-24T03:59:37.386Z,8.80
2023-03-24T04:02:49.152Z,8.20
2023-03-24T04:05:18.901Z,7.60
2023-03-24T04:08:08.720Z,5.22
2023-03-24T04:10:54.254Z,5.32
2023-03-24T04:13:49.678Z,6.03
2023-03-24T04:17:02.143Z,6.15
2023-03-24T04:19:44.624Z,5.88
2023-03-24T04:22:31.645Z,6.20
2023-03-24T04:25:10.041Z,7.18
2023-03-24T04:27:49.631Z,5.50
2023-03-24T04:30:23.794Z,6.45
2023-03-24T04:33:08.978Z,7.13
2023-03-24T04:38:33.002Z,8.23
2023-03-24T04:41:01.493Z,6.88
2023-03-24T04:43:43.076Z,7.20
2023-03-24T04:46:10.564Z,6.85
2023-03-24T04:48:50.148Z,6.32
2023-03-24T04:51:44.754Z,5.85
2023-03-24T04:54:13.590Z,6.07
2023-03-24T04:57:11.917Z,5.72
2023-03-24T04:59:38.952Z,6.47
2023-03-24T05:02:05.870Z,6.30
2023-03-24T05:04:37.486Z,8.43
2023-03-24T05:07:14.294Z,8.63
2023-03-24T05:09:45.955Z,8.43
2023-03-24T05:12:13.207Z,8.40
2023-03-24T05:14:43.255Z,8.98
2023-03-24T05:17:20.742Z,8.23
2023-03-24T05:22:43.990Z,10.60
2023-03-24T05:25:11.366Z,9.38
2023-03-24T05:27:38.423Z,9.85
2023-03-24T05:30:07.585Z,11.15
2023-03-24T05:32:34.660Z,10.70
2023-03-24T05:35:01.712Z,11.40
2023-03-24T05:37:28.618Z,10.52
2023-03-24T05:40:00.763Z,10.75
2023-03-24T05:42:27.647Z,11.35
2023-03-24T05:44:54.570Z,11.82
2023-03-24T05:47:21.476Z,11.93
2023-03-24T05:49:48.285Z,11.93
2023-03-24T05:52:16.971Z,10.50
2023-03-24T05:54:43.902Z,10.85
2023-03-24T05:57:18.687Z,11.18
2023-03-24T05:59:48.699Z,11.60
2023-03-24T06:02:15.816Z,10.27
2023-03-24T06:04:48.860Z,10.88
2023-03-24T06:10:07.725Z,11.00
2023-03-24T06:12:34.989Z,10.20
2023-03-24T06:15:02.057Z,11.13
2023-03-24T06:20:21.885Z,10.15
2023-03-24T06:22:57.065Z,10.45
2023-03-24T06:25:28.979Z,11.48
2023-03-24T06:27:56.147Z,11.43
2023-03-24T06:30:41.957Z,11.85
2023-03-24T06:33:09.574Z,10.55
2023-03-24T06:35:46.785Z,10.27
2023-03-24T06:38:15.524Z,12.32
2023-03-24T06:40:45.611Z,11.30
2023-03-24T06:43:12.478Z,10.65
2023-03-24T06:45:40.766Z,11.50
2023-03-24T06:48:07.761Z,10.63
2023-03-24T06:50:35.609Z,10.98
2023-03-24T06:53:03.654Z,10.55
2023-03-24T06:55:30.448Z,11.85
2023-03-24T06:57:57.263Z,11.30
2023-03-24T07:00:26.384Z,12.48
2023-03-24T07:02:53.573Z,11.57
2023-03-24T07:05:20.790Z,11.85
2023-03-24T07:10:23.054Z,11.55
2023-03-24T07:12:49.985Z,12.50
2023-03-24T07:15:17.253Z,11.63
2023-03-24T07:17:44.071Z,11.10
2023-03-24T07:20:11.406Z,11.75
2023-03-24T07:22:39.023Z,10.60
2023-03-24T07:27:48.681Z,11.07
2023-03-24T07:30:15.646Z,10.98
2023-03-24T07:32:42.545Z,11.25
2023-03-24T07:35:12.459Z,10.73
2023-03-24T07:37:41.315Z,12.07
2023-03-24T07:40:12.429Z,11.80
2023-03-24T07:42:41.058Z,11.40
2023-03-24T07:45:10.885Z,11.10
2023-03-24T07:47:39.155Z,10.15
2023-03-24T07:50:11.165Z,9.80
2023-03-24T07:52:41.632Z,9.77
2023-03-24T07:55:14.194Z,9.68
2023-03-24T07:57:46.775Z,10.43
2023-03-24T08:00:18.349Z,10.18
2023-03-24T08:02:48.173Z,10.75
2023-03-24T08:05:17.462Z,10.88
2023-03-24T08:07:53.576Z,9.70
2023-03-24T08:10:23.567Z,10.93
2023-03-24T08:12:51.379Z,9.45
2023-03-24T08:15:19.160Z,9.95
2023-03-24T08:17:49.279Z,11.55
2023-03-24T08:20:16.764Z,9.45
2023-03-24T08:22:46.505Z,9.55
2023-03-24T08:25:13.595Z,8.98
2023-03-24T08:27:43.634Z,8.70
2023-03-24T08:30:14.635Z,8.93
2023-03-24T08:32:56.130Z,8.88
2023-03-24T08:35:26.658Z,9.43
2023-03-24T08:38:04.550Z,8.15
2023-03-24T08:40:35.476Z,9.75
2023-03-24T08:43:08.862Z,9.05
2023-03-24T08:45:36.956Z,8.85
2023-03-24T08:48:06.449Z,9.80
2023-03-24T08:50:36.822Z,9.00
2023-03-24T08:53:04.707Z,9.43
2023-03-24T08:55:34.899Z,8.93
2023-03-24T08:58:05.543Z,7.60
2023-03-24T09:00:32.676Z,9.05
2023-03-24T09:03:02.570Z,9.30
2023-03-24T09:05:43.837Z,8.57
2023-03-24T09:08:13.401Z,8.50
2023-03-24T09:10:41.808Z,8.15
2023-03-24T09:13:09.048Z,7.43
2023-03-24T09:15:36.930Z,7.72
2023-03-24T09:18:04.132Z,8.85
2023-03-24T09:20:31.437Z,8.50
2023-03-24T09:22:58.740Z,9.32
2023-03-24T09:25:25.690Z,7.90
2023-03-24T09:27:53.911Z,8.60
2023-03-24T09:30:21.354Z,8.82
2023-03-24T09:32:48.691Z,6.93
2023-03-24T09:35:16.020Z,7.53
2023-03-24T09:37:44.584Z,7.15
2023-03-24T09:40:30.618Z,7.57
2023-03-24T09:43:05.813Z,8.50
2023-03-24T09:45:50.476Z,6.97
2023-03-24T09:48:39.761Z,7.97
2023-03-24T09:51:15.618Z,7.40
2023-03-24T09:54:28.996Z,5.68
2023-03-24T09:56:57.604Z,5.88
2023-03-24T09:59:54.271Z,5.30
2023-03-24T10:02:25.242Z,5.80
2023-03-24T10:04:53.354Z,5.68
2023-03-24T10:07:34.457Z,5.45
2023-03-24T10:10:04.650Z,4.68
2023-03-24T10:12:43.834Z,4.45
2023-03-24T10:15:37.121Z,4.63
2023-03-24T10:18:34.568Z,4.55
2023-03-24T10:21:15.178Z,4.75
2023-03-24T10:23:59.119Z,4.70
2023-03-24T10:26:29.064Z,5.20
2023-03-24T10:29:28.065Z,4.65
2023-03-24T10:32:04.079Z,4.50
2023-03-24T10:34:34.464Z,4.80
2023-03-24T10:37:04.584Z,4.63
2023-03-24T10:39:44.123Z,4.78
2023-03-24T10:42:27.028Z,4.65
2023-03-24T10:44:54.357Z,4.65
2023-03-24T10:47:33.068Z,5.15
2023-03-24T10:50:14.766Z,5.60
2023-03-24T10:52:50.785Z,5.03
2023-03-24T10:55:21.417Z,4.07
2023-03-24T10:57:51.526Z,4.20
2023-03-24T11:00:26.753Z,4.40
2023-03-24T11:03:09.037Z,4.75
2023-03-24T11:05:38.963Z,6.38
2023-03-24T11:08:18.395Z,5.63
2023-03-24T11:10:45.271Z,4.35
2023-03-24T11:13:26.806Z,4.18
2023-03-24T11:16:15.654Z,4.05
2023-03-24T11:18:58.619Z,3.83
2023-03-24T11:21:28.339Z,3.90
2023-03-24T11:24:02.802Z,3.85
2023-03-24T11:26:38.608Z,3.30
2023-03-24T11:29:17.633Z,3.83
2023-03-24T11:32:05.719Z,4.63
2023-03-24T11:34:39.076Z,3.75
2023-03-24T11:37:23.604Z,3.90
2023-03-24T11:40:13.599Z,3.22
2023-03-24T11:42:58.889Z,3.25
2023-03-24T11:45:34.946Z,3.55
2023-03-24T11:48:05.261Z,3.63
2023-03-24T11:50:40.073Z,3.25
2023-03-24T11:53:12.223Z,3.33
2023-03-24T11:55:51.350Z,3.47
2023-03-24T11:58:26.776Z,3.47
2023-03-24T12:01:21.662Z,3.72
2023-03-24T12:04:06.797Z,3.35
2023-03-24T12:07:29.560Z,3.22
2023-03-24T12:10:17.789Z,2.50
2023-03-24T12:13:07.066Z,1.95
2023-03-24T12:15:57.338Z,1.80
2023-03-24T12:18:49.383Z,2.38
2023-03-24T12:21:43.682Z,2.20
2023-03-24T12:24:22.997Z,2.35
2023-03-24T12:26:55.188Z,2.70
2023-03-24T12:30:00.157Z,2.45
2023-03-24T12:32:37.846Z,2.38
2023-03-24T12:35:28.845Z,3.38
2023-03-24T12:38:21.305Z,2.65
2023-03-24T12:41:17.590Z,3.00
2023-03-24T12:43:50.258Z,2.80
2023-03-24T12:46:46.676Z,2.60
2023-03-24T12:49:32.650Z,2.53
2023-03-24T12:52:37.414Z,2.67
2023-03-24T12:55:08.377Z,2.50
2023-03-24T12:57:48.590Z,2.67
2023-03-24T13:00:36.582Z,2.38
2023-03-24T13:03:31.798Z,2.15
2023-03-24T13:06:16.886Z,2.25
2023-03-24T13:08:49.784Z,2.10
2023-03-24T13:11:32.272Z,2.20
2023-03-24T13:14:03.973Z,2.30
2023-03-24T13:16:36.334Z,2.22
2023-03-24T13:19:03.991Z,2.30
2023-03-24T13:21:35.250Z,3.20
2023-03-24T13:24:14.489Z,2.17
2023-03-24T13:29:49.472Z,2.20
2023-03-24T13:32:24.099Z,2.47
2023-03-24T13:35:18.270Z,2.20
2023-03-24T13:37:58.042Z,2.08
2023-03-24T13:40:28.885Z,2.80
2023-03-24T13:42:59.879Z,2.17
2023-03-24T13:45:39.507Z,2.55
2023-03-24T13:48:07.128Z,2.25
2023-03-24T13:50:41.701Z,2.00
2023-03-24T13:53:18.208Z,1.40
2023-03-24T13:55:52.660Z,2.03
2023-03-24T13:58:28.766Z,1.60
2023-03-24T14:01:09.267Z,1.58
2023-03-24T14:03:43.385Z,2.53
2023-03-24T14:06:48.041Z,2.08
2023-03-24T14:09:34.519Z,1.92
2023-03-24T14:12:08.415Z,1.98
2023-03-24T14:14:57.185Z,2.00
2023-03-24T14:17:30.356Z,3.00
2023-03-24T14:20:09.224Z,2.47
2023-03-24T14:22:41.547Z,2.33
2023-03-24T14:25:23.676Z,2.38
2023-03-24T14:28:08.255Z,2.50
2023-03-24T14:30:44.686Z,2.47
2023-03-24T14:33:25.670Z,2.38
2023-03-24T14:36:02.246Z,2.50
2023-03-24T14:38:29.170Z,2.30
2023-03-24T14:41:06.284Z,2.42
2023-03-24T14:43:41.834Z,2.65
2023-03-24T14:46:21.416Z,2.30
2023-03-24T14:49:23.585Z,2.30
2023-03-24T14:52:16.562Z,2.55
2023-03-24T14:55:01.221Z,2.50
2023-03-24T14:57:41.553Z,1.98
2023-03-24T15:00:42.252Z,2.40
2023-03-24T15:03:11.557Z,2.90
2023-03-24T15:05:38.986Z,3.15
2023-03-24T15:08:06.266Z,3.25
2023-03-24T15:11:07.781Z,3.40
2023-03-24T15:13:34.678Z,3.55
2023-03-24T15:16:27.778Z,3.85
2023-03-24T15:19:01.937Z,3.25
2023-03-24T15:21:37.436Z,4.00
2023-03-24T15:24:29.543Z,4.05
2023-03-24T15:27:20.849Z,5.70
2023-03-24T15:29:57.911Z,4.72
2023-03-24T15:32:28.078Z,4.40
2023-03-24T15:34:58.986Z,4.50
2023-03-24T15:37:40.604Z,4.20
2023-03-24T15:40:30.604Z,4.60
2023-03-24T15:43:17.450Z,4.22
2023-03-24T15:45:51.068Z,3.83
2023-03-24T15:48:51.555Z,3.83
2023-03-24T15:51:18.727Z,3.85
2023-03-24T15:54:04.879Z,3.85
2023-03-24T15:56:32.348Z,3.40
2023-03-24T15:59:16.100Z,4.05
2023-03-24T16:01:45.134Z,3.83
2023-03-24T16:04:15.948Z,4.07
2023-03-24T16:06:49.495Z,3.80
2023-03-24T16:09:27.954Z,4.32
2023-03-24T16:11:55.313Z,3.90
2023-03-24T16:14:27.436Z,4.25
2023-03-24T16:17:00.177Z,4.50
2023-03-24T16:19:28.044Z,4.40
2023-03-24T16:21:55.390Z,4.60
2023-03-24T16:24:23.788Z,4.80
2023-03-24T16:26:50.820Z,5.35
2023-03-24T16:29:22.709Z,5.93
2023-03-24T16:32:01.289Z,5.18
2023-03-24T16:34:28.483Z,5.70
2023-03-24T16:36:56.705Z,5.57
2023-03-24T16:39:29.632Z,5.60
2023-03-24T16:41:56.802Z,5.32
2023-03-24T16:44:24.512Z,5.40
2023-03-24T16:46:58.781Z,6.88
2023-03-24T17:09:08.676Z,6.22
2023-03-24T17:11:48.117Z,8.00
2023-03-24T17:15:06.643Z,7.05
2023-03-24T17:18:27.600Z,6.30
2023-03-24T17:21:10.526Z,10.50
2023-03-24T17:23:37.505Z,6.75
2023-03-24T17:26:05.326Z,7.55
2023-03-24T17:28:32.423Z,7.32
2023-03-24T17:30:59.465Z,6.28
2023-03-24T17:33:26.434Z,5.22
2023-03-24T17:35:54.710Z,5.32
2023-03-24T17:38:21.572Z,4.93
2023-03-24T17:40:48.760Z,5.00
2023-03-24T17:43:15.998Z,4.95
2023-03-24T17:45:42.868Z,5.35
2023-03-24T17:48:10.026Z,5.50
2023-03-24T17:50:37.125Z,5.15
2023-03-24T17:53:04.028Z,6.80
2023-03-24T17:55:31.142Z,6.65
2023-03-24T17:57:58.459Z,6.68
2023-03-24T18:00:25.410Z,7.32
2023-03-24T18:02:52.893Z,6.88
2023-03-24T18:05:20.313Z,7.38
2023-03-24T18:07:47.443Z,7.40
2023-03-24T18:10:17.494Z,8.35
2023-03-24T18:12:44.558Z,6.30
2023-03-24T18:15:12.392Z,7.68
2023-03-24T18:17:39.622Z,7.82
2023-03-24T18:20:28.103Z,7.82
2023-03-24T18:22:55.218Z,7.80
2023-03-24T18:25:22.297Z,8.20
2023-03-24T18:27:49.838Z,7.63
2023-03-24T18:30:25.185Z,6.43
2023-03-24T18:32:52.144Z,6.00
2023-03-24T18:35:24.713Z,4.93
2023-03-24T18:37:52.025Z,5.50
2023-03-24T18:40:19.018Z,4.72
2023-03-24T18:59:01.250Z,6.15
2023-03-24T19:01:33.406Z,5.80
2023-03-24T19:04:00.377Z,5.28
2023-03-24T19:06:31.474Z,4.40
2023-03-24T19:08:59.694Z,5.00
2023-03-24T19:11:26.842Z,4.03
2023-03-24T19:13:56.821Z,4.72
2023-03-24T19:16:27.723Z,3.67
2023-03-24T19:18:58.129Z,4.38
2023-03-24T19:21:25.717Z,4.63
2023-03-24T19:23:59.892Z,4.70
2023-03-24T19:26:26.694Z,4.93
2023-03-24T19:28:53.775Z,4.30
2023-03-24T19:31:21.296Z,3.88
2023-03-24T19:33:52.586Z,4.70
2023-03-24T19:36:20.105Z,4.32
2023-03-24T19:38:47.124Z,5.07
2023-03-24T19:41:15.288Z,5.00
2023-03-24T19:43:42.538Z,4.65
2023-03-24T19:46:12.349Z,5.18
2023-03-24T19:48:39.277Z,4.78
2023-03-24T19:51:06.403Z,5.13
2023-03-24T19:53:33.869Z,4.82
2023-03-24T19:56:08.591Z,4.70
2023-03-24T19:58:36.182Z,4.93
2023-03-24T20:01:03.255Z,4.75
2023-03-24T20:03:30.297Z,4.45
2023-03-24T20:06:03.398Z,4.22
2023-03-24T20:08:33.217Z,5.15
2023-03-24T20:11:34.728Z,5.20
2023-03-24T20:14:20.056Z,5.60
2023-03-24T20:19:41.819Z,4.60
2023-03-24T20:22:08.738Z,5.50
2023-03-24T20:24:38.652Z,5.65
2023-03-24T20:27:06.928Z,5.55
2023-03-24T20:29:34.091Z,5.15
2023-03-24T20:32:00.906Z,5.32
2023-03-24T20:34:28.282Z,5.78
2023-03-24T20:36:55.202Z,5.43
2023-03-24T20:39:22.808Z,5.05
2023-03-24T20:41:50.145Z,4.97
2023-03-24T20:57:47.997Z,4.68
2023-03-24T21:00:18.268Z,4.13
2023-03-24T21:02:48.299Z,4.70
2023-03-24T21:05:40.909Z,4.05
2023-03-24T21:08:45.298Z,4.22
2023-03-24T21:11:39.900Z,4.10
2023-03-24T21:14:13.292Z,4.38
2023-03-24T21:23:12.112Z,4.75
2023-03-24T21:26:09.928Z,4.18
2023-03-24T22:13:19.464Z,5.03
2023-03-24T22:15:55.376Z,4.07
2023-03-24T22:21:21.193Z,4.25
2023-03-24T22:23:50.744Z,3.85
2023-03-24T22:26:20.966Z,3.60
2023-03-24T22:28:51.693Z,3.80
2023-03-24T22:31:20.497Z,3.85
2023-03-24T22:34:10.973Z,3.90
2023-03-24T22:36:39.260Z,3.90
2023-03-24T22:53:12.344Z,3.92
2023-03-24T22:55:42.275Z,4.40
2023-03-24T22:58:41.722Z,4.13
2023-03-24T23:01:15.708Z,4.20
2023-03-24T23:04:43.508Z,4.38
2023-03-24T23:07:10.805Z,4.88
2023-03-24T23:19:14.295Z,4.30
2023-03-24T23:21:49.103Z,4.22
2023-03-24T23:24:16.666Z,4.03
2023-03-24T23:27:07.434Z,4.15
2023-03-24T23:29:34.599Z,4.57
2023-03-24T23:33:06.530Z,4.32
2023-03-24T23:35:54.777Z,4.45
2023-03-24T23:38:34.449Z,4.05
2023-03-24T23:41:08.558Z,4.63
2023-03-24T23:43:40.321Z,4.50
2023-03-24T23:46:13.755Z,4.55
2023-03-24T23:48:44.148Z,4.40
2023-03-24T23:51:12.704Z,4.05
2023-03-24T23:53:45.312Z,4.18
2023-03-24T23:56:14.609Z,4.57
2023-03-24T23:58:42.933Z,4.53
